createdAt,value
2023-10-27T00:00:03.393Z,2.50
2023-10-27T00:02:39.626Z,2.80
2023-10-27T00:05:11.941Z,2.10
2023-10-27T00:07:44.046Z,2.40
2023-10-27T00:10:16.274Z,2.50
2023-10-27T00:12:48.382Z,2.10
2023-10-27T00:15:20.950Z,2.20
2023-10-27T00:17:53.151Z,2.80
2023-10-27T00:20:25.376Z,2.20
2023-10-27T00:22:57.571Z,2.60
2023-10-27T00:25:29.740Z,2.70
2023-10-27T00:28:01.945Z,2.70
2023-10-27T00:30:34.402Z,2.20
2023-10-27T00:33:06.677Z,2.40
2023-10-27T00:35:39.303Z,2.20
2023-10-27T00:38:11.484Z,3.10
2023-10-27T00:40:43.615Z,1.90
2023-10-27T00:43:18.796Z,1.90
2023-10-27T00:45:52.872Z,1.80
2023-10-27T00:48:25.047Z,2.30
2023-10-27T00:50:57.202Z,2.70
2023-10-27T00:53:30.442Z,3.50
2023-10-27T00:56:02.530Z,3.00
2023-10-27T00:58:35.059Z,3.00
2023-10-27T01:01:08.610Z,2.20
2023-10-27T01:03:41.334Z,2.70
2023-10-27T01:06:13.514Z,2.40
2023-10-27T01:08:45.893Z,2.30
2023-10-27T01:11:18.284Z,3.60
2023-10-27T01:13:53.955Z,2.50
2023-10-27T01:16:26.437Z,2.40
2023-10-27T01:18:59.104Z,2.50
2023-10-27T01:21:31.523Z,2.00
2023-10-27T01:24:04.114Z,2.30
2023-10-27T01:26:36.209Z,1.80
2023-10-27T01:29:08.595Z,2.50
2023-10-27T01:31:40.797Z,2.00
2023-10-27T01:34:13.434Z,2.70
2023-10-27T01:36:45.637Z,2.60
2023-10-27T01:39:18.552Z,3.30
2023-10-27T01:41:50.661Z,2.80
2023-10-27T01:44:22.803Z,2.80
2023-10-27T01:46:55.251Z,2.30
2023-10-27T01:49:28.161Z,2.60
2023-10-27T01:54:32.963Z,2.30
2023-10-27T01:57:05.382Z,2.20
2023-10-27T01:59:37.589Z,1.90
2023-10-27T02:02:09.688Z,2.00
2023-10-27T02:04:41.872Z,3.10
2023-10-27T02:07:16.430Z,2.20
2023-10-27T02:09:48.614Z,3.10
2023-10-27T02:12:20.848Z,2.30
2023-10-27T02:14:52.923Z,2.40
2023-10-27T02:17:25.045Z,2.40
2023-10-27T02:19:57.264Z,3.20
2023-10-27T02:22:29.601Z,2.10
2023-10-27T02:25:02.149Z,2.00
2023-10-27T02:27:39.558Z,2.70
2023-10-27T02:30:13.034Z,1.90
2023-10-27T02:32:45.131Z,2.90
2023-10-27T02:35:17.374Z,3.10
2023-10-27T02:37:49.499Z,2.10
2023-10-27T02:40:21.725Z,1.80
2023-10-27T02:42:53.877Z,2.80
2023-10-27T02:45:25.946Z,1.90
2023-10-27T02:47:58.256Z,2.40
2023-10-27T02:50:32.061Z,1.80
2023-10-27T02:53:04.102Z,2.10
2023-10-27T02:55:38.227Z,1.70
2023-10-27T02:58:10.545Z,2.40
2023-10-27T03:00:45.221Z,1.90
2023-10-27T03:03:17.381Z,1.80
2023-10-27T03:05:49.665Z,3.00
2023-10-27T03:08:21.910Z,2.60
2023-10-27T03:10:53.889Z,3.50
2023-10-27T03:13:26.356Z,2.30
2023-10-27T03:15:59.166Z,2.90
2023-10-27T03:18:31.805Z,1.70
2023-10-27T03:21:06.807Z,2.10
2023-10-27T03:23:39.043Z,2.10
2023-10-27T03:26:11.392Z,3.00
2023-10-27T03:28:44.693Z,2.20
2023-10-27T03:31:16.750Z,1.70
2023-10-27T03:33:48.889Z,2.70
2023-10-27T03:36:22.525Z,2.10
2023-10-27T03:38:57.266Z,2.90
2023-10-27T03:41:29.345Z,2.20
2023-10-27T03:44:01.517Z,2.60
2023-10-27T03:46:33.710Z,2.20
2023-10-27T03:49:06.028Z,2.40
2023-10-27T03:51:38.074Z,2.60
2023-10-27T03:54:10.415Z,3.00
2023-10-27T03:56:42.408Z,2.00
2023-10-27T03:59:14.481Z,1.80
2023-10-27T04:01:46.473Z,2.40
2023-10-27T04:04:21.702Z,2.90
2023-10-27T04:06:55.316Z,2.20
2023-10-27T04:09:28.004Z,3.30
2023-10-27T04:12:00.098Z,2.80
2023-10-27T04:14:32.302Z,2.10
2023-10-27T04:17:04.320Z,2.80
2023-10-27T04:19:36.915Z,3.20
2023-10-27T04:22:09.504Z,2.80
2023-10-27T04:24:41.673Z,2.40
2023-10-27T04:27:13.833Z,3.00
2023-10-27T04:29:45.985Z,3.00
2023-10-27T04:32:20.044Z,3.70
2023-10-27T04:34:52.539Z,2.50
2023-10-27T04:37:24.661Z,2.60
2023-10-27T04:39:56.704Z,2.80
2023-10-27T04:42:28.946Z,3.10
2023-10-27T04:45:01.306Z,3.00
2023-10-27T04:47:33.509Z,2.70
2023-10-27T04:50:07.181Z,3.00
2023-10-27T04:52:39.240Z,4.50
2023-10-27T04:55:13.698Z,2.70
2023-10-27T04:57:46.117Z,3.30
2023-10-27T05:00:18.920Z,3.80
2023-10-27T05:02:51.817Z,3.20
2023-10-27T05:05:24.085Z,3.30
2023-10-27T05:07:57.235Z,3.30
2023-10-27T05:10:29.688Z,3.10
2023-10-27T05:13:01.855Z,2.80
2023-10-27T05:15:34.095Z,3.20
2023-10-27T05:18:06.786Z,3.00
2023-10-27T05:20:41.939Z,2.30
2023-10-27T05:23:14.252Z,3.30
2023-10-27T05:25:47.156Z,3.20
2023-10-27T05:28:19.247Z,2.90
2023-10-27T05:30:53.018Z,3.90
2023-10-27T05:33:25.729Z,2.80
2023-10-27T05:35:57.762Z,3.00
2023-10-27T05:38:29.757Z,3.30
2023-10-27T05:41:02.112Z,4.20
2023-10-27T05:43:34.527Z,3.10
2023-10-27T05:46:07.047Z,4.20
2023-10-27T05:48:40.119Z,3.30
2023-10-27T05:51:12.519Z,2.80
2023-10-27T05:53:44.514Z,4.20
2023-10-27T05:56:16.534Z,3.60
2023-10-27T05:58:48.983Z,3.90
2023-10-27T06:01:21.301Z,3.80
2023-10-27T06:03:55.240Z,3.60
2023-10-27T06:06:28.474Z,3.50
2023-10-27T06:09:00.717Z,3.70
2023-10-27T06:11:32.851Z,3.50
2023-10-27T06:14:04.978Z,4.00
2023-10-27T06:16:37.978Z,3.10
2023-10-27T06:19:10.609Z,3.50
2023-10-27T06:21:42.941Z,4.20
2023-10-27T06:24:15.250Z,4.00
2023-10-27T06:26:48.135Z,3.60
2023-10-27T06:29:21.119Z,4.30
2023-10-27T06:31:53.390Z,3.70
2023-10-27T06:34:25.594Z,3.50
2023-10-27T06:37:00.810Z,4.10
2023-10-27T06:39:33.913Z,4.40
2023-10-27T06:42:07.707Z,4.30
2023-10-27T06:44:39.721Z,3.60
2023-10-27T06:47:13.653Z,4.10
2023-10-27T06:49:46.086Z,3.70
2023-10-27T06:52:18.679Z,3.40
2023-10-27T06:54:51.164Z,4.40
2023-10-27T06:57:23.414Z,4.00
2023-10-27T06:59:57.296Z,5.30
2023-10-27T07:02:38.824Z,4.80
2023-10-27T07:05:18.424Z,4.70
2023-10-27T07:07:50.644Z,3.70
2023-10-27T07:10:24.397Z,3.30
2023-10-27T07:12:56.744Z,3.90
2023-10-27T07:15:29.013Z,5.00
2023-10-27T07:18:01.113Z,4.30
2023-10-27T07:20:33.530Z,4.10
2023-10-27T07:23:05.931Z,4.50
2023-10-27T07:25:38.077Z,4.20
2023-10-27T07:28:10.598Z,4.60
2023-10-27T07:30:42.897Z,5.10
2023-10-27T07:33:15.231Z,4.00
2023-10-27T07:35:49.088Z,3.30
2023-10-27T07:38:21.460Z,5.80
2023-10-27T07:40:53.735Z,3.50
2023-10-27T07:43:26.117Z,4.30
2023-10-27T07:45:58.232Z,4.60
2023-10-27T07:48:30.420Z,4.60
2023-10-27T07:51:04.402Z,4.00
2023-10-27T07:53:36.679Z,4.40
2023-10-27T07:56:10.015Z,4.70
2023-10-27T07:58:42.435Z,4.00
2023-10-27T08:08:14.383Z,4.60
2023-10-27T08:10:48.364Z,4.90
2023-10-27T08:13:22.262Z,5.40
2023-10-27T08:15:54.776Z,4.30
2023-10-27T08:18:27.222Z,4.00
2023-10-27T08:20:59.939Z,5.40
2023-10-27T08:23:33.612Z,4.50
2023-10-27T08:26:06.109Z,4.30
2023-10-27T08:28:38.382Z,4.70
2023-10-27T08:31:13.200Z,5.40
2023-10-27T08:33:47.389Z,5.60
2023-10-27T08:36:22.454Z,4.50
2023-10-27T08:38:57.665Z,4.20
2023-10-27T08:41:29.756Z,5.30
2023-10-27T08:44:14.601Z,4.60
2023-10-27T08:46:55.408Z,5.40
2023-10-27T08:49:27.554Z,5.70
2023-10-27T08:52:01.023Z,5.60
2023-10-27T08:54:33.426Z,4.20
2023-10-27T08:57:05.956Z,4.70
2023-10-27T08:59:38.182Z,5.00
2023-10-27T09:02:10.418Z,5.10
2023-10-27T09:04:47.060Z,5.00
2023-10-27T09:07:19.290Z,5.10
2023-10-27T09:09:51.570Z,4.90
2023-10-27T09:12:27.702Z,5.10
2023-10-27T09:15:05.708Z,4.60
2023-10-27T09:17:55.418Z,4.70
2023-10-27T09:20:28.466Z,5.90
2023-10-27T09:23:01.787Z,4.20
2023-10-27T09:25:35.807Z,3.50
2023-10-27T09:28:08.968Z,3.60
2023-10-27T09:30:42.128Z,4.00
2023-10-27T09:33:20.602Z,3.90
2023-10-27T09:35:53.799Z,3.60
2023-10-27T09:38:26.681Z,3.90
2023-10-27T09:40:59.883Z,2.90
2023-10-27T09:43:33.961Z,3.40
2023-10-27T09:46:06.748Z,3.10
2023-10-27T09:48:39.773Z,3.40
2023-10-27T09:51:17.697Z,3.80
2023-10-27T09:53:50.859Z,3.30
2023-10-27T09:56:23.351Z,3.60
2023-10-27T09:58:55.628Z,4.10
2023-10-27T10:01:27.835Z,3.90
2023-10-27T10:03:59.789Z,3.30
2023-10-27T10:06:46.303Z,3.60
2023-10-27T10:09:22.094Z,4.20
2023-10-27T10:12:01.041Z,3.80
2023-10-27T10:14:50.072Z,3.20
2023-10-27T10:17:39.355Z,3.70
2023-10-27T10:20:12.336Z,3.60
2023-10-27T10:22:59.499Z,3.60
2023-10-27T10:25:33.235Z,3.70
2023-10-27T10:28:25.303Z,3.20
2023-10-27T10:31:27.026Z,3.30
2023-10-27T10:34:14.264Z,4.10
2023-10-27T10:36:47.340Z,3.70
2023-10-27T10:39:19.444Z,4.60
2023-10-27T10:42:07.201Z,3.40
2023-10-27T10:44:39.652Z,3.50
2023-10-27T10:47:27.147Z,3.80
2023-10-27T10:49:59.779Z,3.10
2023-10-27T10:52:32.380Z,3.20
2023-10-27T10:55:05.758Z,3.40
2023-10-27T10:57:37.994Z,4.40
2023-10-27T11:00:14.987Z,4.30
2023-10-27T11:02:47.338Z,3.80
2023-10-27T11:05:40.934Z,4.00
2023-10-27T11:08:13.229Z,4.10
2023-10-27T11:10:45.542Z,3.40
2023-10-27T11:13:17.876Z,3.50
2023-10-27T11:15:51.940Z,3.70
2023-10-27T11:18:24.526Z,3.20
2023-10-27T11:20:56.987Z,3.50
2023-10-27T11:23:30.560Z,3.70
2023-10-27T11:26:07.080Z,3.60
2023-10-27T11:28:43.406Z,3.10
2023-10-27T11:31:20.826Z,3.80
2023-10-27T11:34:04.388Z,3.50
2023-10-27T11:36:37.625Z,3.20
2023-10-27T11:39:17.664Z,3.40
2023-10-27T11:41:51.394Z,3.70
2023-10-27T11:44:24.424Z,2.80
2023-10-27T11:46:57.845Z,3.20
2023-10-27T11:49:31.931Z,3.50
2023-10-27T11:52:04.456Z,4.10
2023-10-27T11:54:36.842Z,3.60
2023-10-27T11:57:09.130Z,2.70
2023-10-27T11:59:41.851Z,2.90
2023-10-27T12:02:15.136Z,2.70
2023-10-27T12:04:47.619Z,2.60
2023-10-27T12:07:20.157Z,2.80
2023-10-27T12:09:52.293Z,2.80
2023-10-27T12:12:24.744Z,3.00
2023-10-27T12:14:57.061Z,2.60
2023-10-27T12:17:29.164Z,2.30
2023-10-27T12:20:08.051Z,2.20
2023-10-27T12:22:43.127Z,3.00
2023-10-27T12:25:15.608Z,2.30
2023-10-27T12:59:54.928Z,1.30
2023-10-27T13:02:28.464Z,1.60
2023-10-27T13:05:04.347Z,1.30
2023-10-27T13:07:37.507Z,2.00
2023-10-27T13:10:11.538Z,1.80
2023-10-27T13:12:43.677Z,1.60
2023-10-27T13:15:16.195Z,2.10
2023-10-27T13:17:49.303Z,1.60
2023-10-27T13:20:22.745Z,1.70
2023-10-27T13:22:55.811Z,1.60
2023-10-27T13:25:28.206Z,1.80
2023-10-27T13:28:01.466Z,1.50
2023-10-27T13:30:33.929Z,1.70
2023-10-27T13:33:06.134Z,1.90
2023-10-27T13:35:38.590Z,2.00
2023-10-27T13:38:11.531Z,2.00
2023-10-27T13:40:43.759Z,1.90
2023-10-27T13:43:18.307Z,2.00
2023-10-27T13:48:21.683Z,2.70
2023-10-27T13:50:54.078Z,2.10
2023-10-27T13:53:27.331Z,2.40
2023-10-27T13:55:59.752Z,2.20
2023-10-27T13:58:33.530Z,2.40
2023-10-27T14:01:05.931Z,2.40
2023-10-27T14:03:38.417Z,3.00
2023-10-27T14:06:14.282Z,2.00
2023-10-27T14:08:47.345Z,2.40
2023-10-27T14:11:19.949Z,1.60
2023-10-27T14:13:52.554Z,2.10
2023-10-27T14:16:24.965Z,2.40
2023-10-27T14:18:58.113Z,3.20
2023-10-27T14:21:31.108Z,2.70
2023-10-27T14:24:03.739Z,3.50
2023-10-27T14:26:36.788Z,2.70
2023-10-27T14:29:09.231Z,3.30
2023-10-27T14:31:42.007Z,3.60
2023-10-27T14:34:14.733Z,3.70
2023-10-27T14:36:47.242Z,3.30
2023-10-27T14:39:19.450Z,3.90
2023-10-27T14:41:52.341Z,3.70
2023-10-27T14:44:24.476Z,3.50
2023-10-27T14:50:38.065Z,2.90
2023-10-27T14:53:10.545Z,2.80
2023-10-27T14:55:42.726Z,3.10
2023-10-27T14:58:15.110Z,4.40
2023-10-27T15:00:47.360Z,3.70
2023-10-27T15:03:19.846Z,2.80
2023-10-27T15:05:52.822Z,3.50
2023-10-27T15:08:25.370Z,3.90
2023-10-27T15:11:00.877Z,3.80
2023-10-27T15:13:34.131Z,4.60
2023-10-27T15:16:08.185Z,3.40
2023-10-27T15:18:41.637Z,3.40
2023-10-27T15:21:14.504Z,4.20
2023-10-27T15:23:49.913Z,4.30
2023-10-27T15:26:23.206Z,3.50
2023-10-27T15:28:57.353Z,3.50
2023-10-27T15:31:31.680Z,4.00
2023-10-27T15:34:04.548Z,3.30
2023-10-27T15:36:37.357Z,4.20
2023-10-27T15:39:12.456Z,3.30
2023-10-27T15:41:45.301Z,3.40
2023-10-27T15:44:17.954Z,3.80
2023-10-27T15:46:50.420Z,3.80
2023-10-27T15:49:23.025Z,4.10
2023-10-27T15:51:55.331Z,3.20
2023-10-27T15:54:27.717Z,3.00
2023-10-27T15:57:00.538Z,4.20
2023-10-27T15:59:37.746Z,2.80
2023-10-27T16:02:10.487Z,3.60
2023-10-27T16:04:42.907Z,3.00
2023-10-27T16:07:15.088Z,3.20
2023-10-27T16:09:47.478Z,3.30
2023-10-27T16:12:19.844Z,3.10
2023-10-27T16:14:52.542Z,3.40
2023-10-27T16:17:24.915Z,3.00
2023-10-27T16:19:57.282Z,3.00
2023-10-27T16:22:30.671Z,3.70
2023-10-27T16:25:03.235Z,3.20
2023-10-27T16:27:38.831Z,3.70
2023-10-27T16:30:12.700Z,3.80
2023-10-27T16:32:45.008Z,5.10
2023-10-27T16:35:17.549Z,3.00
2023-10-27T16:37:49.801Z,3.00
2023-10-27T16:40:22.521Z,3.60
2023-10-27T16:42:54.720Z,2.90
2023-10-27T16:45:27.428Z,3.70
2023-10-27T16:47:59.866Z,3.50
2023-10-27T16:50:32.270Z,3.30
2023-10-27T16:53:04.937Z,3.90
2023-10-27T16:55:37.544Z,4.00
2023-10-27T16:58:09.727Z,3.40
2023-10-27T17:00:41.902Z,3.90
2023-10-27T17:03:14.289Z,4.90
2023-10-27T17:05:48.087Z,4.10
2023-10-27T17:08:20.677Z,4.40
2023-10-27T17:10:56.903Z,4.10
2023-10-27T17:13:30.209Z,4.40
2023-10-27T17:16:06.630Z,4.70
2023-10-27T17:18:41.482Z,3.80
2023-10-27T17:21:15.396Z,3.40
2023-10-27T17:23:51.307Z,3.70
2023-10-27T17:26:23.779Z,4.80
2023-10-27T17:28:56.102Z,4.60
2023-10-27T17:31:28.981Z,5.40
2023-10-27T17:34:01.746Z,4.50
2023-10-27T17:36:38.662Z,4.10
2023-10-27T17:39:13.829Z,3.70
2023-10-27T17:41:47.711Z,3.40
2023-10-27T17:44:20.319Z,4.70
2023-10-27T17:46:52.836Z,4.30
2023-10-27T17:49:25.893Z,3.70
2023-10-27T17:51:58.298Z,4.00
2023-10-27T17:54:34.630Z,4.00
2023-10-27T17:57:07.539Z,3.40
2023-10-27T17:59:39.892Z,4.00
2023-10-27T18:02:11.891Z,4.10
2023-10-27T18:04:45.105Z,3.40
2023-10-27T18:07:19.291Z,4.10
2023-10-27T18:09:53.250Z,4.10
2023-10-27T18:12:26.997Z,4.50
2023-10-27T18:15:00.368Z,3.70
2023-10-27T18:17:33.543Z,3.80
2023-10-27T18:20:08.023Z,3.10
2023-10-27T18:22:40.512Z,3.70
2023-10-27T18:25:12.880Z,3.50
2023-10-27T18:27:45.294Z,2.60
2023-10-27T18:30:18.955Z,4.30
2023-10-27T18:32:51.537Z,4.00
2023-10-27T18:35:24.121Z,3.80
2023-10-27T18:37:56.452Z,4.50
2023-10-27T18:40:31.037Z,4.00
2023-10-27T18:43:05.400Z,3.90
2023-10-27T18:45:38.576Z,3.70
2023-10-27T18:48:11.042Z,3.80
2023-10-27T18:50:43.492Z,3.30
2023-10-27T18:53:15.880Z,3.40
2023-10-27T18:55:48.357Z,3.40
2023-10-27T18:58:20.538Z,4.10
2023-10-27T19:00:52.732Z,4.50
2023-10-27T19:03:30.837Z,3.40
2023-10-27T19:06:04.119Z,3.90
2023-10-27T19:08:36.944Z,4.00
2023-10-27T19:11:11.689Z,4.40
2023-10-27T19:16:16.290Z,2.90
2023-10-27T19:22:08.753Z,4.30
2023-10-27T19:24:40.998Z,4.60
2023-10-27T19:27:13.714Z,4.00
2023-10-27T19:29:46.209Z,5.50
2023-10-27T19:32:18.450Z,4.50
2023-10-27T19:34:50.673Z,4.20
2023-10-27T19:37:23.131Z,4.20
2023-10-27T19:39:57.522Z,4.70
2023-10-27T19:42:30.079Z,4.30
2023-10-27T19:45:04.270Z,4.40
2023-10-27T19:47:36.569Z,4.50
2023-10-27T19:50:11.019Z,4.50
2023-10-27T19:52:43.659Z,4.40
2023-10-27T19:55:17.807Z,4.00
2023-10-27T19:57:51.363Z,4.00
2023-10-27T20:00:24.688Z,4.40
2023-10-27T20:02:57.009Z,4.90
2023-10-27T20:05:32.603Z,5.30
2023-10-27T20:08:05.233Z,4.20
2023-10-27T20:10:41.661Z,4.40
2023-10-27T20:13:14.161Z,5.40
2023-10-27T20:15:46.762Z,4.50
2023-10-27T20:18:19.319Z,3.80
2023-10-27T20:20:52.594Z,5.60
2023-10-27T20:23:24.801Z,5.50
2023-10-27T20:25:57.420Z,7.20
2023-10-27T20:28:31.838Z,4.70
2023-10-27T20:31:06.148Z,4.00
2023-10-27T20:33:38.932Z,4.50
2023-10-27T20:36:13.158Z,4.30
2023-10-27T20:38:45.290Z,5.20
2023-10-27T20:41:17.868Z,4.40
2023-10-27T20:43:50.009Z,4.20
2023-10-27T20:46:22.391Z,4.80
2023-10-27T20:48:55.281Z,6.00
2023-10-27T20:51:27.720Z,5.10
2023-10-27T20:54:00.220Z,3.60
2023-10-27T20:56:34.804Z,5.20
2023-10-27T20:59:07.958Z,4.00
2023-10-27T21:01:40.172Z,5.80
2023-10-27T21:04:12.133Z,4.80
2023-10-27T21:06:44.716Z,4.30
2023-10-27T21:09:17.133Z,5.20
2023-10-27T21:11:49.431Z,5.50
2023-10-27T21:14:21.564Z,3.90
2023-10-27T21:16:54.069Z,5.00
2023-10-27T21:19:26.990Z,4.10
2023-10-27T21:21:59.894Z,4.70
2023-10-27T21:24:33.219Z,3.50
2023-10-27T21:27:06.010Z,4.70
2023-10-27T21:29:38.259Z,4.90
2023-10-27T21:32:12.062Z,4.20
2023-10-27T21:38:15.357Z,3.90
2023-10-27T21:40:48.967Z,4.30
2023-10-27T21:43:21.490Z,4.80
2023-10-27T21:45:53.945Z,4.90
2023-10-27T21:48:26.301Z,4.60
2023-10-27T21:51:06.403Z,4.30
2023-10-27T21:53:38.551Z,4.80
2023-10-27T21:56:12.134Z,4.80
2023-10-27T21:58:44.534Z,3.90
2023-10-27T22:01:17.822Z,4.80
2023-10-27T22:03:56.048Z,4.40
2023-10-27T22:06:31.817Z,3.60
2023-10-27T22:09:05.767Z,4.80
2023-10-27T22:11:38.347Z,4.90
2023-10-27T22:14:10.428Z,5.60
2023-10-27T22:16:42.924Z,5.10
2023-10-27T22:19:16.531Z,5.60
2023-10-27T22:21:49.132Z,4.00
2023-10-27T22:24:22.067Z,5.70
2023-10-27T22:26:54.216Z,5.90
2023-10-27T22:29:26.364Z,5.80
2023-10-27T22:31:58.905Z,4.40
2023-10-27T22:34:31.808Z,4.60
2023-10-27T22:37:04.181Z,5.70
2023-10-27T22:39:36.496Z,4.90
2023-10-27T22:42:08.894Z,4.90
2023-10-27T22:44:41.581Z,4.20
2023-10-27T22:47:14.155Z,3.40
2023-10-27T22:49:46.748Z,4.90
2023-10-27T22:52:19.576Z,4.40
2023-10-27T22:54:54.059Z,4.30
2023-10-27T22:57:26.798Z,4.20
2023-10-27T22:59:59.684Z,4.20
2023-10-27T23:02:34.397Z,5.70
2023-10-27T23:05:07.546Z,4.00
2023-10-27T23:07:40.956Z,3.40
2023-10-27T23:10:13.631Z,5.20
2023-10-27T23:12:46.472Z,3.50
2023-10-27T23:15:20.014Z,3.60
2023-10-27T23:17:52.390Z,5.50
2023-10-27T23:20:24.893Z,5.20
2023-10-27T23:23:00.201Z,3.30
2023-10-27T23:25:34.351Z,4.70
2023-10-27T23:28:07.796Z,3.60
2023-10-27T23:30:40.211Z,4.00
2023-10-27T23:33:12.722Z,3.80
2023-10-27T23:35:55.296Z,3.90
2023-10-27T23:38:27.807Z,4.90
2023-10-27T23:41:00.905Z,4.50
2023-10-27T23:43:33.326Z,4.90
2023-10-27T23:46:06.591Z,4.80
2023-10-27T23:48:39.455Z,4.80
2023-10-27T23:51:11.541Z,4.10
2023-10-27T23:53:43.868Z,4.20
2023-10-27T23:56:16.195Z,4.70
2023-10-27T23:58:49.051Z,5.10
